Terminal Aerodrome Forecast
Issued by NWS North Platte, NE

Home | Current Version | Previous Version | Graphics & Text | Print | Product List | Glossary On
Versions: 1 2 3 4 5 6 7 8 9 10 11 12 13 14 15 16
693
FTUS43 KLBF 230520
TAFVTN
TAF
KVTN 230520Z 2306/2406 06008KT 1/2SM FG VV002
      TEMPO 2306/2309 1/4SM TSRA FG VV001CB
     FM230900 07008KT 1/2SM FG VV002
      TEMPO 2309/2312 1/4SM FG VV001
     FM231200 10008KT 1 1/2SM BR OVC001
     FM231500 14011KT P6SM SCT015 BKN150
     FM231800 16017G24KT P6SM BKN150=

USA.gov is the U.S. government's official web portal to all federal, state and local government web resources and services.